sensor_id;sensor_type;location;lat;lon;timestamp;temperature;humidity
70151;DHT22;57517;43.562;19.540;2022-07-18T00:01:01;512.30;1561.60
70151;DHT22;57517;43.562;19.540;2022-07-18T00:03:27;512.10;1587.20
70151;DHT22;57517;43.562;19.540;2022-07-18T00:05:53;487.00;1612.80
70151;DHT22;57517;43.562;19.540;2022-07-18T00:08:18;486.80;1638.40
70151;DHT22;57517;43.562;19.540;2022-07-18T00:10:44;486.70;1612.80
70151;DHT22;57517;43.562;19.540;2022-07-18T00:13:10;486.60;1638.40
70151;DHT22;57517;43.562;19.540;2022-07-18T00:15:36;486.70;1638.40
70151;DHT22;57517;43.562;19.540;2022-07-18T00:18:03;486.50;1664.00
70151;DHT22;57517;43.562;19.540;2022-07-18T00:20:29;486.70;1638.40
70151;DHT22;57517;43.562;19.540;2022-07-18T00:22:55;486.60;1638.40
70151;DHT22;57517;43.562;19.540;2022-07-18T00:25:21;486.60;1638.40
70151;DHT22;57517;43.562;19.540;2022-07-18T00:27:47;486.50;1638.40
70151;DHT22;57517;43.562;19.540;2022-07-18T00:30:13;486.40;1664.00
70151;DHT22;57517;43.562;19.540;2022-07-18T00:32:40;486.60;1638.40
70151;DHT22;57517;43.562;19.540;2022-07-18T00:35:06;486.70;1612.80
70151;DHT22;57517;43.562;19.540;2022-07-18T00:37:32;486.60;1638.40
70151;DHT22;57517;43.562;19.540;2022-07-18T00:39:58;486.50;1689.60
70151;DHT22;57517;43.562;19.540;2022-07-18T00:42:24;461.40;1715.20
70151;DHT22;57517;43.562;19.540;2022-07-18T00:44:56;461.40;1740.80
70151;DHT22;57517;43.562;19.540;2022-07-18T00:47:22;461.60;1715.20
70151;DHT22;57517;43.562;19.540;2022-07-18T00:49:48;486.50;1689.60
70151;DHT22;57517;43.562;19.540;2022-07-18T00:52:14;486.80;1664.00
70151;DHT22;57517;43.562;19.540;2022-07-18T00:54:40;486.80;1689.60
70151;DHT22;57517;43.562;19.540;2022-07-18T00:57:06;486.60;1689.60
70151;DHT22;57517;43.562;19.540;2022-07-18T00:59:32;486.40;1715.20
70151;DHT22;57517;43.562;19.540;2022-07-18T01:02:17;486.50;1715.20
70151;DHT22;57517;43.562;19.540;2022-07-18T01:04:43;486.40;1689.60
70151;DHT22;57517;43.562;19.540;2022-07-18T01:07:09;461.70;1689.60
70151;DHT22;57517;43.562;19.540;2022-07-18T01:09:35;461.70;1689.60
70151;DHT22;57517;43.562;19.540;2022-07-18T01:12:02;461.50;1715.20
70151;DHT22;57517;43.562;19.540;2022-07-18T01:14:29;461.40;1715.20
70151;DHT22;57517;43.562;19.540;2022-07-18T01:16:55;461.60;1715.20
70151;DHT22;57517;43.562;19.540;2022-07-18T01:19:21;461.60;1689.60
70151;DHT22;57517;43.562;19.540;2022-07-18T01:21:47;461.30;1715.20
70151;DHT22;57517;43.562;19.540;2022-07-18T01:24:13;461.20;1715.20
70151;DHT22;57517;43.562;19.540;2022-07-18T01:26:38;461.00;1740.80
70151;DHT22;57517;43.562;19.540;2022-07-18T01:29:04;461.20;1715.20
70151;DHT22;57517;43.562;19.540;2022-07-18T01:31:30;461.30;1715.20
70151;DHT22;57517;43.562;19.540;2022-07-18T01:33:59;461.60;1715.20
70151;DHT22;57517;43.562;19.540;2022-07-18T01:36:25;461.70;1689.60
70151;DHT22;57517;43.562;19.540;2022-07-18T01:38:51;461.60;1715.20
70151;DHT22;57517;43.562;19.540;2022-07-18T01:41:17;461.60;1740.80
70151;DHT22;57517;43.562;19.540;2022-07-18T01:43:43;486.40;1689.60
70151;DHT22;57517;43.562;19.540;2022-07-18T01:46:10;486.50;1664.00
70151;DHT22;57517;43.562;19.540;2022-07-18T01:48:40;461.50;1715.20
70151;DHT22;57517;43.562;19.540;2022-07-18T01:51:07;461.20;1715.20
70151;DHT22;57517;43.562;19.540;2022-07-18T01:53:40;460.90;1740.80
70151;DHT22;57517;43.562;19.540;2022-07-18T01:56:07;460.90;1740.80
70151;DHT22;57517;43.562;19.540;2022-07-18T01:58:33;461.00;1740.80
70151;DHT22;57517;43.562;19.540;2022-07-18T02:00:59;460.90;1715.20
70151;DHT22;57517;43.562;19.540;2022-07-18T02:03:24;461.00;1715.20
70151;DHT22;57517;43.562;19.540;2022-07-18T02:05:50;460.90;1740.80
70151;DHT22;57517;43.562;19.540;2022-07-18T02:08:16;461.00;1715.20
70151;DHT22;57517;43.562;19.540;2022-07-18T02:10:42;436.00;1740.80
70151;DHT22;57517;43.562;19.540;2022-07-18T02:13:07;460.90;1766.40
70151;DHT22;57517;43.562;19.540;2022-07-18T02:15:33;461.00;1740.80
70151;DHT22;57517;43.562;19.540;2022-07-18T02:17:59;461.00;1715.20
70151;DHT22;57517;43.562;19.540;2022-07-18T02:20:25;460.80;1766.40
70151;DHT22;57517;43.562;19.540;2022-07-18T02:22:50;435.70;1766.40
70151;DHT22;57517;43.562;19.540;2022-07-18T02:25:16;435.80;1766.40
70151;DHT22;57517;43.562;19.540;2022-07-18T02:27:42;435.90;1766.40
70151;DHT22;57517;43.562;19.540;2022-07-18T02:30:09;436.00;1766.40
70151;DHT22;57517;43.562;19.540;2022-07-18T02:32:35;460.80;1766.40
70151;DHT22;57517;43.562;19.540;2022-07-18T02:35:04;435.80;1792.00
70151;DHT22;57517;43.562;19.540;2022-07-18T02:37:30;435.60;1792.00
70151;DHT22;57517;43.562;19.540;2022-07-18T02:39:56;435.40;1817.60
70151;DHT22;57517;43.562;19.540;2022-07-18T02:42:22;435.30;1817.60
70151;DHT22;57517;43.562;19.540;2022-07-18T02:44:47;410.40;1843.20
70151;DHT22;57517;43.562;19.540;2022-07-18T02:47:13;435.40;1817.60
70151;DHT22;57517;43.562;19.540;2022-07-18T02:49:39;435.40;1792.00
70151;DHT22;57517;43.562;19.540;2022-07-18T02:52:08;435.40;1817.60
70151;DHT22;57517;43.562;19.540;2022-07-18T02:54:36;435.50;1792.00
70151;DHT22;57517;43.562;19.540;2022-07-18T02:57:02;435.40;1766.40
70151;DHT22;57517;43.562;19.540;2022-07-18T02:59:29;435.30;1792.00
70151;DHT22;57517;43.562;19.540;2022-07-18T03:01:55;410.30;1843.20
70151;DHT22;57517;43.562;19.540;2022-07-18T03:04:22;410.30;1868.80
70151;DHT22;57517;43.562;19.540;2022-07-18T03:06:48;435.30;1843.20
70151;DHT22;57517;43.562;19.540;2022-07-18T03:09:15;435.20;1817.60
70151;DHT22;57517;43.562;19.540;2022-07-18T03:11:41;410.20;1868.80
70151;DHT22;57517;43.562;19.540;2022-07-18T03:14:07;410.10;1868.80
70151;DHT22;57517;43.562;19.540;2022-07-18T03:16:33;410.30;1843.20
70151;DHT22;57517;43.562;19.540;2022-07-18T03:18:59;410.20;1868.80
70151;DHT22;57517;43.562;19.540;2022-07-18T03:21:25;409.90;1920.00
70151;DHT22;57517;43.562;19.540;2022-07-18T03:23:51;410.10;1894.40
70151;DHT22;57517;43.562;19.540;2022-07-18T03:26:16;410.30;1920.00
70151;DHT22;57517;43.562;19.540;2022-07-18T03:28:42;410.40;1868.80
70151;DHT22;57517;43.562;19.540;2022-07-18T03:31:08;410.50;1843.20
70151;DHT22;57517;43.562;19.540;2022-07-18T03:33:34;410.10;1894.40
70151;DHT22;57517;43.562;19.540;2022-07-18T03:36:00;410.00;1894.40
70151;DHT22;57517;43.562;19.540;2022-07-18T03:38:25;410.00;1894.40
70151;DHT22;57517;43.562;19.540;2022-07-18T03:40:51;410.00;1894.40
70151;DHT22;57517;43.562;19.540;2022-07-18T03:43:17;409.60;1920.00
70151;DHT22;57517;43.562;19.540;2022-07-18T03:45:43;409.60;1920.00
70151;DHT22;57517;43.562;19.540;2022-07-18T03:48:08;384.80;1894.40
70151;DHT22;57517;43.562;19.540;2022-07-18T03:50:34;384.80;1894.40
70151;DHT22;57517;43.562;19.540;2022-07-18T03:53:00;384.70;1920.00
70151;DHT22;57517;43.562;19.540;2022-07-18T03:55:26;409.70;1920.00
70151;DHT22;57517;43.562;19.540;2022-07-18T03:57:52;409.90;1894.40
70151;DHT22;57517;43.562;19.540;2022-07-18T04:00:18;410.10;1868.80
70151;DHT22;57517;43.562;19.540;2022-07-18T04:02:46;410.00;1920.00
70151;DHT22;57517;43.562;19.540;2022-07-18T04:05:13;410.00;1920.00
70151;DHT22;57517;43.562;19.540;2022-07-18T04:07:40;410.10;1868.80
70151;DHT22;57517;43.562;19.540;2022-07-18T04:10:07;410.40;1843.20
70151;DHT22;57517;43.562;19.540;2022-07-18T04:12:34;435.20;1843.20
70151;DHT22;57517;43.562;19.540;2022-07-18T04:15:00;410.20;1894.40
70151;DHT22;57517;43.562;19.540;2022-07-18T04:17:26;410.00;1894.40
70151;DHT22;57517;43.562;19.540;2022-07-18T04:19:52;410.00;1920.00
70151;DHT22;57517;43.562;19.540;2022-07-18T04:22:18;409.70;1920.00
70151;DHT22;57517;43.562;19.540;2022-07-18T04:24:44;409.80;1920.00
70151;DHT22;57517;43.562;19.540;2022-07-18T04:27:10;409.70;1920.00
70151;DHT22;57517;43.562;19.540;2022-07-18T04:29:35;409.60;1920.00
70151;DHT22;57517;43.562;19.540;2022-07-18T04:32:03;409.80;1920.00
70151;DHT22;57517;43.562;19.540;2022-07-18T04:34:29;410.00;1920.00
70151;DHT22;57517;43.562;19.540;2022-07-18T04:36:54;410.40;1894.40
70151;DHT22;57517;43.562;19.540;2022-07-18T04:39:20;460.90;1766.40
70151;DHT22;57517;43.562;19.540;2022-07-18T04:41:46;486.80;1638.40
70151;DHT22;57517;43.562;19.540;2022-07-18T04:44:13;538.00;1484.80
70151;DHT22;57517;43.562;19.540;2022-07-18T04:46:39;563.90;1382.40
70151;DHT22;57517;43.562;19.540;2022-07-18T04:49:04;589.70;1280.00
70151;DHT22;57517;43.562;19.540;2022-07-18T04:51:30;615.00;1203.20
70151;DHT22;57517;43.562;19.540;2022-07-18T04:53:56;640.50;1152.00
70151;DHT22;57517;43.562;19.540;2022-07-18T04:56:22;666.10;1075.20
70151;DHT22;57517;43.562;19.540;2022-07-18T04:58:48;666.40;1049.60
70151;DHT22;57517;43.562;19.540;2022-07-18T05:01:14;692.00;998.40
70151;DHT22;57517;43.562;19.540;2022-07-18T05:03:39;717.60;947.20
70151;DHT22;57517;43.562;19.540;2022-07-18T05:06:05;743.00;896.00
70151;DHT22;57517;43.562;19.540;2022-07-18T05:08:32;742.80;921.60
70151;DHT22;57517;43.562;19.540;2022-07-18T05:10:57;768.30;870.40
70151;DHT22;57517;43.562;19.540;2022-07-18T05:13:23;794.10;819.20
70151;DHT22;57517;43.562;19.540;2022-07-18T05:15:49;794.50;819.20
70151;DHT22;57517;43.562;19.540;2022-07-18T05:18:15;794.50;844.80
70151;DHT22;57517;43.562;19.540;2022-07-18T05:20:41;819.30;819.20
70151;DHT22;57517;43.562;19.540;2022-07-18T05:23:06;819.40;793.60
70151;DHT22;57517;43.562;19.540;2022-07-18T05:25:32;819.70;768.00
70151;DHT22;57517;43.562;19.540;2022-07-18T05:27:58;845.00;793.60
70151;DHT22;57517;43.562;19.540;2022-07-18T05:30:24;845.30;768.00
70151;DHT22;57517;43.562;19.540;2022-07-18T05:32:51;845.50;742.40
70151;DHT22;57517;43.562;19.540;2022-07-18T05:35:18;845.00;768.00
70151;DHT22;57517;43.562;19.540;2022-07-18T05:37:44;845.60;742.40
70151;DHT22;57517;43.562;19.540;2022-07-18T05:40:12;871.10;691.20
70151;DHT22;57517;43.562;19.540;2022-07-18T05:42:38;896.70;665.60
70151;DHT22;57517;43.562;19.540;2022-07-18T05:45:05;921.60;665.60
70151;DHT22;57517;43.562;19.540;2022-07-18T05:47:31;922.20;640.00
70151;DHT22;57517;43.562;19.540;2022-07-18T05:49:57;921.80;640.00
70151;DHT22;57517;43.562;19.540;2022-07-18T05:52:23;947.70;614.40
70151;DHT22;57517;43.562;19.540;2022-07-18T05:54:49;947.90;588.80
70151;DHT22;57517;43.562;19.540;2022-07-18T05:57:14;947.90;588.80
70151;DHT22;57517;43.562;19.540;2022-07-18T05:59:40;948.00;588.80
70151;DHT22;57517;43.562;19.540;2022-07-18T06:02:06;973.00;563.20
70151;DHT22;57517;43.562;19.540;2022-07-18T06:04:32;973.00;588.80
70151;DHT22;57517;43.562;19.540;2022-07-18T06:06:58;973.50;563.20
70151;DHT22;57517;43.562;19.540;2022-07-18T06:09:24;973.00;588.80
70151;DHT22;57517;43.562;19.540;2022-07-18T06:11:50;998.60;588.80
70151;DHT22;57517;43.562;19.540;2022-07-18T06:14:16;998.40;588.80
70151;DHT22;57517;43.562;19.540;2022-07-18T06:16:42;998.60;588.80
70151;DHT22;57517;43.562;19.540;2022-07-18T06:19:08;999.20;563.20
70151;DHT22;57517;43.562;19.540;2022-07-18T06:21:33;973.70;563.20
70151;DHT22;57517;43.562;19.540;2022-07-18T06:23:59;999.20;563.20
70151;DHT22;57517;43.562;19.540;2022-07-18T06:26:25;998.80;563.20
70151;DHT22;57517;43.562;19.540;2022-07-18T06:28:51;1024.20;537.60
70151;DHT22;57517;43.562;19.540;2022-07-18T06:31:17;1049.90;537.60
70151;DHT22;57517;43.562;19.540;2022-07-18T06:33:43;1050.40;512.00
70151;DHT22;57517;43.562;19.540;2022-07-18T06:36:09;1024.70;537.60
70151;DHT22;57517;43.562;19.540;2022-07-18T06:38:37;1050.20;512.00
70151;DHT22;57517;43.562;19.540;2022-07-18T06:41:04;1050.40;512.00
70151;DHT22;57517;43.562;19.540;2022-07-18T06:43:30;1075.40;486.40
70151;DHT22;57517;43.562;19.540;2022-07-18T06:45:55;1075.20;486.40
70151;DHT22;57517;43.562;19.540;2022-07-18T06:48:23;1050.40;512.00
70151;DHT22;57517;43.562;19.540;2022-07-18T06:50:50;1075.70;486.40
70151;DHT22;57517;43.562;19.540;2022-07-18T06:53:16;1050.40;512.00
70151;DHT22;57517;43.562;19.540;2022-07-18T06:55:42;1050.20;486.40
70151;DHT22;57517;43.562;19.540;2022-07-18T06:58:08;1075.50;486.40
70151;DHT22;57517;43.562;19.540;2022-07-18T07:00:35;1075.40;486.40
70151;DHT22;57517;43.562;19.540;2022-07-18T07:03:01;1050.40;486.40
70151;DHT22;57517;43.562;19.540;2022-07-18T07:05:26;1050.20;486.40
70151;DHT22;57517;43.562;19.540;2022-07-18T07:07:52;1075.30;460.80
70151;DHT22;57517;43.562;19.540;2022-07-18T07:10:21;1024.90;486.40
70151;DHT22;57517;43.562;19.540;2022-07-18T07:12:49;1050.00;512.00
70151;DHT22;57517;43.562;19.540;2022-07-18T07:15:19;1050.30;512.00
70151;DHT22;57517;43.562;19.540;2022-07-18T07:17:45;1049.80;486.40
70151;DHT22;57517;43.562;19.540;2022-07-18T07:20:11;1024.80;486.40
70151;DHT22;57517;43.562;19.540;2022-07-18T07:22:45;1049.60;512.00
70151;DHT22;57517;43.562;19.540;2022-07-18T07:25:12;973.60;563.20
70151;DHT22;57517;43.562;19.540;2022-07-18T07:27:38;973.60;537.60
70151;DHT22;57517;43.562;19.540;2022-07-18T07:30:04;973.70;537.60
70151;DHT22;57517;43.562;19.540;2022-07-18T07:32:37;973.40;537.60
70151;DHT22;57517;43.562;19.540;2022-07-18T07:35:04;947.70;537.60
70151;DHT22;57517;43.562;19.540;2022-07-18T07:37:33;922.40;563.20
70151;DHT22;57517;43.562;19.540;2022-07-18T07:39:59;922.30;563.20
70151;DHT22;57517;43.562;19.540;2022-07-18T07:42:25;922.30;588.80
70151;DHT22;57517;43.562;19.540;2022-07-18T07:44:51;896.50;588.80
70151;DHT22;57517;43.562;19.540;2022-07-18T07:47:17;870.70;665.60
70151;DHT22;57517;43.562;19.540;2022-07-18T07:49:42;870.50;665.60
70151;DHT22;57517;43.562;19.540;2022-07-18T07:52:08;845.50;665.60
70151;DHT22;57517;43.562;19.540;2022-07-18T07:54:35;819.80;665.60
70151;DHT22;57517;43.562;19.540;2022-07-18T07:57:01;794.30;691.20
70151;DHT22;57517;43.562;19.540;2022-07-18T07:59:27;794.30;665.60
70151;DHT22;57517;43.562;19.540;2022-07-18T08:01:53;794.40;665.60
70151;DHT22;57517;43.562;19.540;2022-07-18T08:04:19;794.30;665.60
70151;DHT22;57517;43.562;19.540;2022-07-18T08:06:44;793.90;691.20
70151;DHT22;57517;43.562;19.540;2022-07-18T08:09:10;793.80;691.20
70151;DHT22;57517;43.562;19.540;2022-07-18T08:11:36;768.90;691.20
70151;DHT22;57517;43.562;19.540;2022-07-18T08:14:02;768.70;716.80
70151;DHT22;57517;43.562;19.540;2022-07-18T08:16:28;768.40;691.20
70151;DHT22;57517;43.562;19.540;2022-07-18T08:18:53;768.40;691.20
70151;DHT22;57517;43.562;19.540;2022-07-18T08:21:19;768.40;665.60
70151;DHT22;57517;43.562;19.540;2022-07-18T08:23:45;768.30;665.60
70151;DHT22;57517;43.562;19.540;2022-07-18T08:26:12;768.40;665.60
70151;DHT22;57517;43.562;19.540;2022-07-18T08:28:38;768.40;691.20
70151;DHT22;57517;43.562;19.540;2022-07-18T08:31:04;743.30;665.60
70151;DHT22;57517;43.562;19.540;2022-07-18T08:33:30;743.20;665.60
70151;DHT22;57517;43.562;19.540;2022-07-18T08:35:55;743.20;665.60
70151;DHT22;57517;43.562;19.540;2022-07-18T08:38:21;743.10;665.60
70151;DHT22;57517;43.562;19.540;2022-07-18T08:40:48;743.00;640.00
70151;DHT22;57517;43.562;19.540;2022-07-18T08:43:15;743.00;640.00
70151;DHT22;57517;43.562;19.540;2022-07-18T08:45:45;743.00;665.60
70151;DHT22;57517;43.562;19.540;2022-07-18T08:48:17;742.70;665.60
70151;DHT22;57517;43.562;19.540;2022-07-18T08:50:44;742.60;665.60
70151;DHT22;57517;43.562;19.540;2022-07-18T08:53:11;742.80;640.00
70151;DHT22;57517;43.562;19.540;2022-07-18T08:55:37;742.60;665.60
70151;DHT22;57517;43.562;19.540;2022-07-18T08:58:03;742.60;640.00
70151;DHT22;57517;43.562;19.540;2022-07-18T09:00:29;742.70;640.00
70151;DHT22;57517;43.562;19.540;2022-07-18T09:03:02;742.60;640.00
70151;DHT22;57517;43.562;19.540;2022-07-18T09:05:29;742.60;614.40
70151;DHT22;57517;43.562;19.540;2022-07-18T09:08:13;742.80;640.00
70151;DHT22;57517;43.562;19.540;2022-07-18T09:10:51;742.70;614.40
70151;DHT22;57517;43.562;19.540;2022-07-18T09:13:20;742.60;614.40
70151;DHT22;57517;43.562;19.540;2022-07-18T09:16:03;742.70;588.80
70151;DHT22;57517;43.562;19.540;2022-07-18T09:18:31;743.00;588.80
70151;DHT22;57517;43.562;19.540;2022-07-18T09:21:08;742.90;588.80
70151;DHT22;57517;43.562;19.540;2022-07-18T09:23:36;742.90;614.40
70151;DHT22;57517;43.562;19.540;2022-07-18T09:26:04;743.10;640.00
70151;DHT22;57517;43.562;19.540;2022-07-18T09:28:53;743.30;614.40
70151;DHT22;57517;43.562;19.540;2022-07-18T09:31:23;768.00;588.80
70151;DHT22;57517;43.562;19.540;2022-07-18T09:36:19;768.20;588.80
70151;DHT22;57517;43.562;19.540;2022-07-18T09:38:45;768.20;588.80
70151;DHT22;57517;43.562;19.540;2022-07-18T09:41:11;768.30;563.20
70151;DHT22;57517;43.562;19.540;2022-07-18T09:43:38;768.30;563.20
70151;DHT22;57517;43.562;19.540;2022-07-18T09:46:06;768.00;563.20
70151;DHT22;57517;43.562;19.540;2022-07-18T09:48:32;768.10;588.80
70151;DHT22;57517;43.562;19.540;2022-07-18T09:51:06;768.10;563.20
70151;DHT22;57517;43.562;19.540;2022-07-18T09:53:34;768.00;563.20
70151;DHT22;57517;43.562;19.540;2022-07-18T09:56:07;743.30;563.20
70151;DHT22;57517;43.562;19.540;2022-07-18T10:01:04;742.70;537.60
70151;DHT22;57517;43.562;19.540;2022-07-18T10:03:30;742.70;537.60
70151;DHT22;57517;43.562;19.540;2022-07-18T10:05:58;742.40;563.20
70151;DHT22;57517;43.562;19.540;2022-07-18T10:08:26;742.40;563.20
70151;DHT22;57517;43.562;19.540;2022-07-18T10:10:54;717.70;537.60
70151;DHT22;57517;43.562;19.540;2022-07-18T10:13:22;717.50;537.60
70151;DHT22;57517;43.562;19.540;2022-07-18T10:15:49;717.30;512.00
70151;DHT22;57517;43.562;19.540;2022-07-18T10:18:23;717.60;537.60
70151;DHT22;57517;43.562;19.540;2022-07-18T10:20:58;717.70;512.00
70151;DHT22;57517;43.562;19.540;2022-07-18T10:23:33;742.40;537.60
70151;DHT22;57517;43.562;19.540;2022-07-18T10:26:07;717.60;512.00
70151;DHT22;57517;43.562;19.540;2022-07-18T10:28:33;742.40;512.00
70151;DHT22;57517;43.562;19.540;2022-07-18T10:31:15;742.70;512.00
70151;DHT22;57517;43.562;19.540;2022-07-18T10:33:46;742.70;512.00
70151;DHT22;57517;43.562;19.540;2022-07-18T10:36:15;742.60;537.60
70151;DHT22;57517;43.562;19.540;2022-07-18T10:47:17;742.50;563.20
70151;DHT22;57517;43.562;19.540;2022-07-18T10:57:48;742.40;563.20
70151;DHT22;57517;43.562;19.540;2022-07-18T11:00:36;742.40;588.80
70151;DHT22;57517;43.562;19.540;2022-07-18T11:03:07;717.60;563.20
70151;DHT22;57517;43.562;19.540;2022-07-18T11:05:34;717.50;563.20
70151;DHT22;57517;43.562;19.540;2022-07-18T11:18:25;742.60;563.20
70151;DHT22;57517;43.562;19.540;2022-07-18T11:20:52;742.40;563.20
70151;DHT22;57517;43.562;19.540;2022-07-18T11:23:22;742.70;563.20
70151;DHT22;57517;43.562;19.540;2022-07-18T11:25:51;742.80;563.20
70151;DHT22;57517;43.562;19.540;2022-07-18T11:28:18;742.90;537.60
70151;DHT22;57517;43.562;19.540;2022-07-18T11:31:02;743.00;537.60
70151;DHT22;57517;43.562;19.540;2022-07-18T11:33:30;742.90;537.60
70151;DHT22;57517;43.562;19.540;2022-07-18T11:36:08;742.90;512.00
70151;DHT22;57517;43.562;19.540;2022-07-18T11:38:36;742.90;537.60
70151;DHT22;57517;43.562;19.540;2022-07-18T11:41:03;742.90;563.20
70151;DHT22;57517;43.562;19.540;2022-07-18T11:43:29;743.10;563.20
70151;DHT22;57517;43.562;19.540;2022-07-18T11:46:03;743.00;563.20
70151;DHT22;57517;43.562;19.540;2022-07-18T11:48:30;742.90;588.80
70151;DHT22;57517;43.562;19.540;2022-07-18T11:50:56;742.90;563.20
70151;DHT22;57517;43.562;19.540;2022-07-18T11:53:21;742.90;563.20
70151;DHT22;57517;43.562;19.540;2022-07-18T11:55:47;742.90;563.20
70151;DHT22;57517;43.562;19.540;2022-07-18T11:58:15;743.00;588.80
70151;DHT22;57517;43.562;19.540;2022-07-18T12:00:42;742.90;563.20
70151;DHT22;57517;43.562;19.540;2022-07-18T12:05:46;743.10;563.20
70151;DHT22;57517;43.562;19.540;2022-07-18T12:08:36;742.90;563.20
70151;DHT22;57517;43.562;19.540;2022-07-18T12:19:01;742.70;588.80
70151;DHT22;57517;43.562;19.540;2022-07-18T12:24:53;742.70;588.80
70151;DHT22;57517;43.562;19.540;2022-07-18T12:27:36;742.80;588.80
70151;DHT22;57517;43.562;19.540;2022-07-18T12:32:40;742.90;588.80
70151;DHT22;57517;43.562;19.540;2022-07-18T12:35:15;743.10;588.80
70151;DHT22;57517;43.562;19.540;2022-07-18T12:37:50;743.00;563.20
70151;DHT22;57517;43.562;19.540;2022-07-18T12:40:16;742.90;563.20
70151;DHT22;57517;43.562;19.540;2022-07-18T12:42:42;743.00;563.20
70151;DHT22;57517;43.562;19.540;2022-07-18T12:45:11;742.90;563.20
70151;DHT22;57517;43.562;19.540;2022-07-18T12:47:38;743.10;563.20
70151;DHT22;57517;43.562;19.540;2022-07-18T12:50:05;743.30;563.20
70151;DHT22;57517;43.562;19.540;2022-07-18T12:52:32;743.30;563.20
70151;DHT22;57517;43.562;19.540;2022-07-18T12:54:58;768.00;563.20
70151;DHT22;57517;43.562;19.540;2022-07-18T12:57:25;768.00;588.80
70151;DHT22;57517;43.562;19.540;2022-07-18T12:59:51;743.30;563.20
70151;DHT22;57517;43.562;19.540;2022-07-18T13:02:18;743.00;563.20
70151;DHT22;57517;43.562;19.540;2022-07-18T13:04:44;743.00;563.20
70151;DHT22;57517;43.562;19.540;2022-07-18T13:07:11;743.00;563.20
70151;DHT22;57517;43.562;19.540;2022-07-18T13:09:37;743.00;563.20
70151;DHT22;57517;43.562;19.540;2022-07-18T13:12:03;743.10;563.20
70151;DHT22;57517;43.562;19.540;2022-07-18T13:14:29;743.10;563.20
70151;DHT22;57517;43.562;19.540;2022-07-18T13:16:55;743.10;563.20
70151;DHT22;57517;43.562;19.540;2022-07-18T13:19:21;743.10;563.20
70151;DHT22;57517;43.562;19.540;2022-07-18T13:21:48;742.90;563.20
70151;DHT22;57517;43.562;19.540;2022-07-18T13:24:14;742.80;563.20
70151;DHT22;57517;43.562;19.540;2022-07-18T13:26:41;742.70;563.20
70151;DHT22;57517;43.562;19.540;2022-07-18T13:29:07;742.60;563.20
70151;DHT22;57517;43.562;19.540;2022-07-18T13:31:34;742.70;588.80
70151;DHT22;57517;43.562;19.540;2022-07-18T13:34:00;742.90;588.80
70151;DHT22;57517;43.562;19.540;2022-07-18T13:36:25;742.90;588.80
70151;DHT22;57517;43.562;19.540;2022-07-18T13:38:51;743.00;614.40
70151;DHT22;57517;43.562;19.540;2022-07-18T13:41:17;743.10;588.80
70151;DHT22;57517;43.562;19.540;2022-07-18T13:43:43;743.30;563.20
70151;DHT22;57517;43.562;19.540;2022-07-18T13:46:10;743.30;588.80
70151;DHT22;57517;43.562;19.540;2022-07-18T13:48:37;743.20;563.20
70151;DHT22;57517;43.562;19.540;2022-07-18T13:51:03;743.10;563.20
70151;DHT22;57517;43.562;19.540;2022-07-18T13:53:30;743.00;563.20
70151;DHT22;57517;43.562;19.540;2022-07-18T13:55:56;742.90;563.20
70151;DHT22;57517;43.562;19.540;2022-07-18T13:58:21;743.00;563.20
70151;DHT22;57517;43.562;19.540;2022-07-18T14:00:48;743.20;563.20
70151;DHT22;57517;43.562;19.540;2022-07-18T14:03:14;743.20;537.60
70151;DHT22;57517;43.562;19.540;2022-07-18T14:05:40;743.10;537.60
70151;DHT22;57517;43.562;19.540;2022-07-18T14:08:07;743.20;537.60
70151;DHT22;57517;43.562;19.540;2022-07-18T14:10:33;743.30;563.20
70151;DHT22;57517;43.562;19.540;2022-07-18T14:13:00;743.30;537.60
70151;DHT22;57517;43.562;19.540;2022-07-18T14:15:26;743.20;537.60
70151;DHT22;57517;43.562;19.540;2022-07-18T14:17:52;743.30;537.60
70151;DHT22;57517;43.562;19.540;2022-07-18T14:20:18;743.30;537.60
70151;DHT22;57517;43.562;19.540;2022-07-18T14:22:44;743.30;537.60
70151;DHT22;57517;43.562;19.540;2022-07-18T14:25:14;743.30;537.60
70151;DHT22;57517;43.562;19.540;2022-07-18T14:27:40;743.00;537.60
70151;DHT22;57517;43.562;19.540;2022-07-18T14:30:08;742.90;537.60
70151;DHT22;57517;43.562;19.540;2022-07-18T14:32:34;742.90;537.60
70151;DHT22;57517;43.562;19.540;2022-07-18T14:35:00;742.90;563.20
70151;DHT22;57517;43.562;19.540;2022-07-18T14:37:26;742.90;563.20
70151;DHT22;57517;43.562;19.540;2022-07-18T14:39:52;742.90;537.60
70151;DHT22;57517;43.562;19.540;2022-07-18T14:42:18;742.80;563.20
70151;DHT22;57517;43.562;19.540;2022-07-18T14:44:43;742.80;537.60
70151;DHT22;57517;43.562;19.540;2022-07-18T14:47:09;742.90;563.20
70151;DHT22;57517;43.562;19.540;2022-07-18T14:49:35;742.90;537.60
70151;DHT22;57517;43.562;19.540;2022-07-18T14:52:01;742.90;563.20
70151;DHT22;57517;43.562;19.540;2022-07-18T14:54:28;742.80;537.60
70151;DHT22;57517;43.562;19.540;2022-07-18T14:56:54;742.80;537.60
70151;DHT22;57517;43.562;19.540;2022-07-18T14:59:21;742.90;588.80
70151;DHT22;57517;43.562;19.540;2022-07-18T15:01:47;742.90;588.80
70151;DHT22;57517;43.562;19.540;2022-07-18T15:04:14;742.80;588.80
70151;DHT22;57517;43.562;19.540;2022-07-18T15:06:40;742.70;563.20
70151;DHT22;57517;43.562;19.540;2022-07-18T15:09:07;742.70;563.20
70151;DHT22;57517;43.562;19.540;2022-07-18T15:11:35;742.70;563.20
70151;DHT22;57517;43.562;19.540;2022-07-18T15:14:01;742.70;563.20
70151;DHT22;57517;43.562;19.540;2022-07-18T15:16:27;742.70;563.20
70151;DHT22;57517;43.562;19.540;2022-07-18T15:18:53;742.70;563.20
70151;DHT22;57517;43.562;19.540;2022-07-18T15:21:19;742.80;563.20
70151;DHT22;57517;43.562;19.540;2022-07-18T15:23:45;742.80;537.60
70151;DHT22;57517;43.562;19.540;2022-07-18T15:26:10;742.80;665.60
70151;DHT22;57517;43.562;19.540;2022-07-18T15:28:37;742.90;665.60
70151;DHT22;57517;43.562;19.540;2022-07-18T15:31:02;742.90;588.80